createdAt,value
2022-12-06T00:03:45.556Z,98740.76
2022-12-06T00:08:48.700Z,98737.63
2022-12-06T00:13:57.887Z,98733.02
2022-12-06T00:19:00.896Z,98724.69
2022-12-06T00:24:08.918Z,98722.67
2022-12-06T00:29:17.141Z,98718.11
2022-12-06T00:34:24.889Z,98711.15
2022-12-06T00:39:26.865Z,98706.15
2022-12-06T00:44:28.762Z,98703.98
2022-12-06T00:49:30.557Z,98700.40
2022-12-06T00:54:32.409Z,98692.70
2022-12-06T00:59:34.282Z,98681.49
2022-12-06T01:04:37.078Z,98669.15
2022-12-06T01:09:39.027Z,98658.19
2022-12-06T01:14:40.765Z,98654.14
2022-12-06T01:19:42.532Z,98649.48
2022-12-06T01:24:44.403Z,98650.27
2022-12-06T01:29:46.154Z,98646.36
2022-12-06T01:34:52.165Z,98632.29
2022-12-06T01:39:54.041Z,98625.83
2022-12-06T01:45:00.603Z,98618.02
2022-12-06T01:50:26.444Z,98610.09
2022-12-06T01:55:32.820Z,98606.09
2022-12-06T02:00:35.498Z,98602.21
2022-12-06T02:05:40.865Z,98593.78
2022-12-06T02:10:43.001Z,98586.06
2022-12-06T02:15:45.106Z,98567.69
2022-12-06T02:21:04.579Z,98558.58
2022-12-06T02:26:18.628Z,98564.08
2022-12-06T02:31:28.931Z,98557.24
2022-12-06T02:36:38.815Z,98542.63
2022-12-06T02:41:51.731Z,98529.40
2022-12-06T02:46:56.238Z,98527.42
2022-12-06T02:51:58.353Z,98526.08
2022-12-06T02:57:00.243Z,98529.02
2022-12-06T03:02:06.885Z,98529.95
2022-12-06T03:07:34.541Z,98515.01
2022-12-06T03:13:05.058Z,98511.80
2022-12-06T03:18:11.189Z,98490.71
2022-12-06T03:23:28.124Z,98499.69
2022-12-06T03:28:31.064Z,98504.58
2022-12-06T03:33:34.862Z,98509.27
2022-12-06T03:38:54.524Z,98517.05
2022-12-06T03:43:56.508Z,98530.15
2022-12-06T03:49:02.710Z,98524.15
2022-12-06T03:54:06.918Z,98514.01
2022-12-06T03:59:10.788Z,98501.21
2022-12-06T04:04:12.834Z,98490.88
2022-12-06T04:09:33.831Z,98487.25
2022-12-06T04:14:39.275Z,98491.40
2022-12-06T04:19:41.055Z,98482.36
2022-12-06T04:24:42.931Z,98482.27
2022-12-06T04:30:03.699Z,98478.30
2022-12-06T04:35:24.171Z,98475.27
2022-12-06T04:40:26.099Z,98474.98
2022-12-06T04:45:27.832Z,98477.56
2022-12-06T04:50:29.600Z,98473.06
2022-12-06T04:55:31.464Z,98476.73
2022-12-06T05:00:33.322Z,98465.34
2022-12-06T05:05:35.243Z,98454.78
2022-12-06T05:10:37.560Z,98446.27
2022-12-06T05:15:39.571Z,98451.39
2022-12-06T05:20:41.327Z,98463.48
2022-12-06T05:25:43.163Z,98453.69
2022-12-06T05:30:44.988Z,98452.61
2022-12-06T05:35:46.779Z,98449.10
2022-12-06T05:40:48.611Z,98443.27
2022-12-06T05:45:53.773Z,98432.04
2022-12-06T05:50:55.606Z,98438.02
2022-12-06T05:56:05.052Z,98435.32
2022-12-06T06:01:08.432Z,98430.66
2022-12-06T06:06:10.768Z,98424.95
2022-12-06T06:11:12.794Z,98426.00
2022-12-06T06:16:14.561Z,98424.89
2022-12-06T06:21:16.387Z,98418.35
2022-12-06T06:26:18.197Z,98416.17
2022-12-06T06:31:20.060Z,98411.75
2022-12-06T06:36:21.923Z,98400.40
2022-12-06T06:41:24.145Z,98400.42
2022-12-06T06:46:26.281Z,98401.58
2022-12-06T06:51:28.181Z,98393.59
2022-12-06T06:56:29.999Z,98382.85
2022-12-06T07:01:31.931Z,98383.36
2022-12-06T07:06:33.777Z,98385.30
2022-12-06T07:11:35.781Z,98382.59
2022-12-06T07:16:37.664Z,98382.77
2022-12-06T07:21:39.936Z,98376.41
2022-12-06T07:26:41.815Z,98377.89
2022-12-06T07:31:44.009Z,98378.95
2022-12-06T07:36:45.757Z,98380.13
2022-12-06T07:42:06.377Z,98383.42
2022-12-06T07:47:10.799Z,98382.45
2022-12-06T07:52:12.598Z,98376.03
2022-12-06T07:57:14.604Z,98367.56
2022-12-06T08:02:19.721Z,98365.27
2022-12-06T08:07:22.704Z,98365.51
2022-12-06T08:12:24.772Z,98365.64
2022-12-06T08:17:26.612Z,98366.71
2022-12-06T08:22:28.882Z,98365.02
2022-12-06T08:27:30.883Z,98364.71
2022-12-06T08:32:32.645Z,98367.05
2022-12-06T08:37:35.234Z,98369.24
2022-12-06T08:42:37.163Z,98371.27
2022-12-06T08:47:39.019Z,98371.77
2022-12-06T08:52:40.773Z,98366.30
2022-12-06T08:57:42.527Z,98368.66
2022-12-06T09:02:44.307Z,98360.91
2022-12-06T09:07:46.114Z,98356.17
2022-12-06T09:12:47.986Z,98354.98
2022-12-06T09:17:49.851Z,98354.45
2022-12-06T09:22:51.611Z,98350.99
2022-12-06T09:27:53.897Z,98352.55
2022-12-06T09:32:55.791Z,98342.69
2022-12-06T09:37:59.147Z,98339.52
2022-12-06T09:43:35.437Z,98338.18
2022-12-06T09:48:48.845Z,98328.38
2022-12-06T09:54:08.320Z,98320.23
2022-12-06T09:59:31.842Z,98311.71
2022-12-06T10:05:08.012Z,98311.98
2022-12-06T10:10:31.726Z,98312.60
2022-12-06T10:15:51.838Z,98313.13
2022-12-06T10:20:57.614Z,98305.59
2022-12-06T10:26:34.273Z,98303.97
2022-12-06T10:31:50.151Z,98305.73
2022-12-06T10:37:07.373Z,98301.30
2022-12-06T10:42:22.763Z,98299.26
2022-12-06T10:47:44.891Z,98291.58
2022-12-06T10:53:13.026Z,98285.35
2022-12-06T10:59:00.009Z,98278.16
2022-12-06T11:04:13.857Z,98273.25
2022-12-06T11:09:34.448Z,98267.27
2022-12-06T11:14:42.036Z,98269.39
2022-12-06T11:20:01.014Z,98262.69
2022-12-06T11:25:32.883Z,98269.30
2022-12-06T11:30:35.076Z,98268.69
2022-12-06T11:35:37.049Z,98264.52
2022-12-06T11:40:45.183Z,98258.27
2022-12-06T11:45:49.144Z,98259.56
2022-12-06T11:50:52.942Z,98258.77
2022-12-06T11:56:00.330Z,98257.48
2022-12-06T12:01:05.643Z,98255.29
2022-12-06T12:06:23.682Z,98253.65
2022-12-06T12:11:29.500Z,98249.56
2022-12-06T12:16:46.671Z,98236.46
2022-12-06T12:21:54.069Z,98239.38
2022-12-06T12:26:56.417Z,98241.15
2022-12-06T12:31:59.783Z,98235.73
2022-12-06T12:37:05.060Z,98233.25
2022-12-06T12:42:27.901Z,98238.50
2022-12-06T12:47:31.345Z,98235.73
2022-12-06T12:52:38.848Z,98234.73
2022-12-06T12:57:43.508Z,98233.45
2022-12-06T13:02:51.498Z,98230.40
2022-12-06T13:07:59.665Z,98221.29
2022-12-06T13:13:21.970Z,98223.08
2022-12-06T13:18:55.886Z,98233.23
2022-12-06T13:24:10.108Z,98235.73
2022-12-06T13:29:24.010Z,98234.67
2022-12-06T13:34:37.414Z,98235.70
2022-12-06T13:39:40.467Z,98237.33
2022-12-06T13:44:48.294Z,98234.98
2022-12-06T13:49:50.053Z,98234.27
2022-12-06T13:54:51.875Z,98238.68
2022-12-06T13:59:53.900Z,98234.23
2022-12-06T14:04:55.661Z,98230.23
2022-12-06T14:09:57.646Z,98233.66
2022-12-06T14:15:02.432Z,98229.20
2022-12-06T14:20:20.456Z,98228.25
2022-12-06T14:25:28.782Z,98240.05
2022-12-06T14:30:31.197Z,98240.21
2022-12-06T14:35:38.434Z,98236.11
2022-12-06T14:41:03.193Z,98229.70
2022-12-06T14:46:08.000Z,98237.04
2022-12-06T14:51:26.363Z,98234.60
2022-12-06T14:56:35.433Z,98233.48
2022-12-06T15:01:48.338Z,98238.32
2022-12-06T15:06:56.590Z,98234.33
2022-12-06T15:12:41.632Z,98241.01
2022-12-06T15:17:43.638Z,98244.22
2022-12-06T15:22:46.475Z,98247.23
2022-12-06T15:27:48.221Z,98252.19
2022-12-06T15:32:50.008Z,98254.00
2022-12-06T15:37:51.748Z,98256.54
2022-12-06T15:42:57.793Z,98256.92
2022-12-06T15:48:02.390Z,98256.67
2022-12-06T15:53:04.100Z,98261.23
2022-12-06T15:58:05.810Z,98263.48
2022-12-06T16:03:08.270Z,98256.52
2022-12-06T16:08:10.115Z,98259.33
2022-12-06T16:13:21.519Z,98258.38
2022-12-06T16:18:23.706Z,98254.45
2022-12-06T16:24:12.644Z,98257.91
2022-12-06T16:29:23.387Z,98255.98
2022-12-06T16:34:25.209Z,98253.30
2022-12-06T16:39:28.851Z,98257.35
2022-12-06T16:44:31.073Z,98262.70
2022-12-06T16:49:49.567Z,98263.02
2022-12-06T16:54:51.349Z,98268.75
2022-12-06T16:59:53.033Z,98267.61
2022-12-06T17:04:56.671Z,98268.88
2022-12-06T17:09:58.580Z,98267.88
2022-12-06T17:15:00.757Z,98266.83
2022-12-06T17:20:03.145Z,98269.41
2022-12-06T17:25:05.863Z,98271.94
2022-12-06T17:30:12.179Z,98272.92
2022-12-06T17:35:14.398Z,98270.77
2022-12-06T17:40:16.268Z,98274.19
2022-12-06T17:45:23.249Z,98273.45
2022-12-06T17:50:26.626Z,98271.66
2022-12-06T17:55:28.425Z,98272.62
2022-12-06T18:00:30.079Z,98269.77
2022-12-06T18:05:31.898Z,98271.19
2022-12-06T18:10:34.437Z,98272.41
2022-12-06T18:15:39.053Z,98272.91
2022-12-06T18:20:43.011Z,98270.95
2022-12-06T18:25:44.747Z,98265.48
2022-12-06T18:30:46.479Z,98259.34
2022-12-06T18:35:52.212Z,98257.27
2022-12-06T18:41:03.026Z,98259.06
2022-12-06T18:46:09.159Z,98252.48
2022-12-06T18:51:20.634Z,98254.21
2022-12-06T18:56:24.339Z,98253.75
2022-12-06T19:01:35.236Z,98260.14
2022-12-06T19:06:38.136Z,98256.83
2022-12-06T19:11:43.416Z,98260.26
2022-12-06T19:16:47.332Z,98259.95
2022-12-06T19:21:51.518Z,98260.41
2022-12-06T19:26:54.701Z,98263.15
2022-12-06T19:31:56.634Z,98264.42
2022-12-06T19:36:58.389Z,98262.58
2022-12-06T19:42:19.416Z,98263.52
2022-12-06T19:47:21.189Z,98266.70
2022-12-06T19:52:29.308Z,98259.23
2022-12-06T19:57:32.560Z,98252.98
2022-12-06T20:02:34.965Z,98252.48
2022-12-06T20:07:37.101Z,98253.61
2022-12-06T20:12:38.794Z,98248.77
2022-12-06T20:17:41.800Z,98248.70
2022-12-06T20:22:43.613Z,98249.80
2022-12-06T20:27:51.391Z,98252.16
2022-12-06T20:32:53.188Z,98255.77
2022-12-06T20:37:55.577Z,98253.63
2022-12-06T20:42:57.292Z,98242.24
2022-12-06T20:47:59.466Z,98237.13
2022-12-06T20:53:01.107Z,98236.27
2022-12-06T20:58:02.873Z,98235.33
2022-12-06T21:03:04.715Z,98233.38
2022-12-06T21:08:06.832Z,98229.42
2022-12-06T21:13:08.615Z,98229.65
2022-12-06T21:18:10.277Z,98238.61
2022-12-06T21:23:12.405Z,98238.28
2022-12-06T21:28:14.183Z,98237.42
2022-12-06T21:33:15.858Z,98234.65
2022-12-06T21:38:18.010Z,98235.91
2022-12-06T21:43:19.693Z,98235.38
2022-12-06T21:48:21.378Z,98240.75
2022-12-06T21:53:23.097Z,98237.33
2022-12-06T21:58:25.155Z,98236.79
2022-12-06T22:03:27.181Z,98232.19
2022-12-06T22:08:29.257Z,98231.13
2022-12-06T22:13:36.302Z,98229.31
2022-12-06T22:18:44.962Z,98225.85
2022-12-06T22:23:48.242Z,98226.44
2022-12-06T22:28:50.882Z,98226.16
2022-12-06T22:33:53.170Z,98226.95
2022-12-06T22:38:57.898Z,98221.70
2022-12-06T22:44:02.602Z,98219.39
2022-12-06T22:49:05.223Z,98215.98
2022-12-06T22:54:11.442Z,98216.45
2022-12-06T22:59:13.536Z,98217.77
2022-12-06T23:04:15.601Z,98213.02
2022-12-06T23:09:17.386Z,98206.48
2022-12-06T23:14:19.186Z,98207.70
2022-12-06T23:19:20.897Z,98200.96
2022-12-06T23:24:22.607Z,98196.43
2022-12-06T23:29:24.288Z,98192.45
2022-12-06T23:34:26.764Z,98188.48
2022-12-06T23:39:28.487Z,98187.20
2022-12-06T23:44:30.158Z,98178.48
2022-12-06T23:49:31.943Z,98174.57
2022-12-06T23:54:33.666Z,98167.69
2022-12-06T23:59:35.343Z,98163.88
